Time;durP1;ratioP1;P1;durP2;ratioP2;P2;SDS_P1;SDS_P2;PMS_P1;PMS_P2;Temp;Humidity;BMP_temperature;BMP_pressure;BME280_temperature;BME280_humidity;BME280_pressure;Samples;Min_cycle;Max_cycle;Signal;HPM_P1;HPM_P2
2023/06/06 00:00:59;;;;;;;8.98;5.00;;;11.30;99.90;;;;;;5090380;28;20081;-56
2023/06/06 00:03:25;;;;;;;10.65;5.55;;;11.20;99.90;;;;;;5083513;28;20064;-57
2023/06/06 00:05:50;;;;;;;9.25;5.43;;;11.20;99.90;;;;;;5086912;28;20099;-56
2023/06/06 00:08:19;;;;;;;9.10;5.50;;;11.20;99.90;;;;;;5087901;28;20052;-57
2023/06/06 00:10:46;;;;;;;7.78;5.10;;;11.10;99.90;;;;;;5082090;28;20063;-57
2023/06/06 00:13:13;;;;;;;9.02;5.55;;;11.10;99.90;;;;;;5082005;28;20077;-57
2023/06/06 00:15:40;;;;;;;9.23;5.30;;;11.00;99.90;;;;;;5079604;28;20063;-56
2023/06/06 00:18:06;;;;;;;8.20;5.20;;;11.00;99.90;;;;;;5062233;28;20076;-57
2023/06/06 00:20:33;;;;;;;9.25;5.10;;;11.00;99.90;;;;;;5072766;28;20105;-57
2023/06/06 00:22:59;;;;;;;7.85;5.07;;;11.00;99.90;;;;;;5065809;28;20075;-57
2023/06/06 00:25:25;;;;;;;8.93;5.05;;;11.00;99.90;;;;;;5073900;28;20047;-57
2023/06/06 00:27:51;;;;;;;8.05;5.10;;;11.00;99.90;;;;;;5068132;28;20262;-57
2023/06/06 00:30:16;;;;;;;9.82;5.13;;;11.00;99.90;;;;;;5069138;28;20045;-55
2023/06/06 00:32:42;;;;;;;7.78;4.97;;;11.00;99.90;;;;;;5063771;28;20118;-56
2023/06/06 00:35:09;;;;;;;7.93;5.15;;;10.90;99.90;;;;;;5059621;28;20045;-56
2023/06/06 00:37:35;;;;;;;5.85;4.38;;;10.90;99.90;;;;;;5065600;28;20084;-57
2023/06/06 00:40:01;;;;;;;7.47;4.82;;;10.90;99.90;;;;;;5071522;28;20044;-57
2023/06/06 00:42:26;;;;;;;10.30;5.43;;;11.00;99.90;;;;;;5065388;28;20041;-58
2023/06/06 00:44:52;;;;;;;8.50;5.38;;;10.90;99.90;;;;;;5071493;28;20123;-57
2023/06/06 00:47:18;;;;;;;8.82;5.25;;;10.90;99.90;;;;;;5066114;28;20040;-56
2023/06/06 00:49:46;;;;;;;9.60;5.55;;;10.90;99.90;;;;;;5067371;28;20481;-57
2023/06/06 00:52:12;;;;;;;8.63;5.22;;;11.00;99.90;;;;;;5071064;28;20037;-56
2023/06/06 00:54:40;;;;;;;9.40;5.03;;;10.90;99.90;;;;;;5064035;28;20064;-57
2023/06/06 00:57:07;;;;;;;11.18;5.53;;;10.90;99.90;;;;;;5061629;28;20049;-57
2023/06/06 00:59:33;;;;;;;9.23;5.25;;;10.90;99.90;;;;;;5066263;28;21125;-57
2023/06/06 01:02:03;;;;;;;8.88;5.85;;;10.90;99.90;;;;;;5063026;28;20057;-57
2023/06/06 01:04:29;;;;;;;8.75;5.00;;;10.90;99.90;;;;;;5060731;28;20079;-57
2023/06/06 01:06:57;;;;;;;11.07;5.55;;;10.80;99.90;;;;;;5059829;28;20048;-57
2023/06/06 01:09:23;;;;;;;10.75;5.40;;;10.50;99.90;;;;;;5071332;28;20084;-58
2023/06/06 01:12:10;;;;;;;10.98;5.47;;;10.70;99.90;;;;;;5066186;28;20052;-57
2023/06/06 01:14:56;;;;;;;9.32;5.20;;;10.70;99.90;;;;;;5070964;28;20040;-57
2023/06/06 01:17:25;;;;;;;;;;;10.70;99.90;;;;;;5065715;28;20041;-57
2023/06/06 01:19:53;;;;;;;7.20;4.78;;;10.60;99.90;;;;;;5062701;28;19920;-57
2023/06/06 01:22:22;;;;;;;9.63;5.72;;;10.60;99.90;;;;;;5066210;28;20049;-58
2023/06/06 01:24:57;;;;;;;8.38;5.05;;;10.60;99.90;;;;;;5073576;28;20120;-57
2023/06/06 01:27:23;;;;;;;9.55;5.35;;;10.60;99.90;;;;;;5074388;28;20468;-57
2023/06/06 01:29:50;;;;;;;7.82;5.50;;;10.50;99.90;;;;;;5065191;28;20033;-57
2023/06/06 01:32:30;;;;;;;9.05;5.13;;;10.50;99.90;;;;;;5063216;28;20052;-57
2023/06/06 01:35:16;;;;;;;10.60;6.03;;;10.50;99.90;;;;;;5061276;28;20049;-58
2023/06/06 01:38:08;;;;;;;;;;;10.50;99.90;;;;;;5064711;28;20060;-57
2023/06/06 01:40:36;;;;;;;9.25;5.78;;;10.40;99.90;;;;;;5052498;28;19921;-56
2023/06/06 01:43:03;;;;;;;12.57;6.45;;;10.30;99.90;;;;;;5066273;28;20102;-57
2023/06/06 01:45:31;;;;;;;9.60;5.95;;;10.30;99.90;;;;;;5060823;28;20718;-57
2023/06/06 01:47:59;;;;;;;11.43;6.47;;;10.20;99.90;;;;;;5072140;28;20037;-57
2023/06/06 01:50:25;;;;;;;11.07;6.38;;;10.10;99.90;;;;;;5062139;28;20049;-57
2023/06/06 01:52:55;;;;;;;10.38;6.10;;;10.10;99.90;;;;;;5067499;28;20041;-57
2023/06/06 01:55:21;;;;;;;11.02;6.65;;;10.00;99.90;;;;;;5069332;28;20044;-57
2023/06/06 01:57:47;;;;;;;10.40;6.57;;;10.00;99.90;;;;;;5062253;28;20036;-57
2023/06/06 02:00:13;;;;;;;9.68;6.68;;;10.00;99.90;;;;;;5064209;28;20100;-57
2023/06/06 02:02:39;;;;;;;12.18;6.72;;;9.90;99.90;;;;;;5067454;28;20052;-56
2023/06/06 02:05:05;;;;;;;11.15;6.43;;;9.90;99.90;;;;;;5065433;28;20056;-57
2023/06/06 02:07:34;;;;;;;10.55;6.68;;;9.90;99.90;;;;;;5069341;28;20048;-57
2023/06/06 02:10:04;;;;;;;10.23;7.05;;;9.90;99.90;;;;;;5067973;28;20113;-56
2023/06/06 02:12:30;;;;;;;11.88;6.78;;;9.80;99.90;;;;;;5065049;28;20040;-57
2023/06/06 02:14:56;;;;;;;10.30;6.60;;;10.10;99.90;;;;;;5060447;28;20067;-57
2023/06/06 02:17:23;;;;;;;12.77;7.43;;;9.80;99.90;;;;;;5068140;28;20131;-57
2023/06/06 02:19:48;;;;;;;10.10;6.10;;;9.80;99.90;;;;;;5068854;28;20094;-57
2023/06/06 02:22:14;;;;;;;10.60;6.18;;;9.80;99.90;;;;;;5059842;28;20053;-57
2023/06/06 02:24:43;;;;;;;15.82;6.53;;;9.70;99.90;;;;;;5063882;28;20120;-57
2023/06/06 02:27:14;;;;;;;10.57;6.45;;;9.70;99.90;;;;;;5059657;28;20080;-57
2023/06/06 02:29:40;;;;;;;10.38;6.18;;;9.70;99.90;;;;;;5061722;28;20072;-57
2023/06/06 02:32:06;;;;;;;9.05;5.93;;;9.80;99.90;;;;;;5062404;28;20047;-57
2023/06/06 02:34:32;;;;;;;11.07;6.47;;;9.70;99.90;;;;;;5059586;28;20044;-57
2023/06/06 02:36:59;;;;;;;10.73;5.75;;;9.80;99.90;;;;;;5061439;28;20048;-57
2023/06/06 02:39:25;;;;;;;9.13;5.97;;;9.70;99.90;;;;;;5064716;28;20075;-57
2023/06/06 02:41:51;;;;;;;12.38;6.57;;;9.80;99.90;;;;;;5063176;28;20473;-57
2023/06/06 02:44:19;;;;;;;13.05;6.78;;;10.20;99.90;;;;;;5059198;28;20076;-57
2023/06/06 02:46:46;;;;;;;13.18;6.68;;;9.70;99.90;;;;;;5067890;28;20075;-57
2023/06/06 02:49:11;;;;;;;10.68;6.28;;;9.70;99.90;;;;;;5064538;28;20561;-56
2023/06/06 02:51:37;;;;;;;12.98;6.57;;;9.70;99.90;;;;;;5064917;28;20064;-57
2023/06/06 02:54:03;;;;;;;9.82;6.50;;;9.70;99.90;;;;;;5062428;28;20033;-57
2023/06/06 02:56:29;;;;;;;12.65;6.30;;;9.70;99.90;;;;;;5063039;28;20496;-56
2023/06/06 02:58:55;;;;;;;12.00;7.13;;;9.70;99.90;;;;;;5064016;28;20040;-56
2023/06/06 03:01:21;;;;;;;13.05;7.20;;;9.70;99.90;;;;;;5057085;28;20064;-57
2023/06/06 03:03:47;;;;;;;12.85;6.80;;;9.70;99.90;;;;;;5066987;28;20051;-57
2023/06/06 03:06:15;;;;;;;12.25;6.97;;;9.70;99.90;;;;;;5064957;28;20101;-57
2023/06/06 03:08:43;;;;;;;11.40;6.63;;;9.70;99.90;;;;;;5063780;28;20138;-57
2023/06/06 03:11:09;;;;;;;12.20;6.80;;;9.70;99.90;;;;;;5064989;28;20036;-57
2023/06/06 03:13:35;;;;;;;10.18;6.50;;;8.00;99.90;;;;;;5070282;28;20056;-56
2023/06/06 03:16:01;;;;;;;13.00;6.60;;;9.60;99.90;;;;;;5058445;28;20041;-57
2023/06/06 03:18:27;;;;;;;14.60;7.70;;;9.70;99.90;;;;;;5061630;28;20098;-57
2023/06/06 03:20:56;;;;;;;15.02;7.10;;;9.70;99.90;;;;;;5065337;28;20187;-57
2023/06/06 03:23:22;;;;;;;11.88;6.70;;;9.70;99.90;;;;;;5066670;28;20055;-57
2023/06/06 03:25:51;;;;;;;12.50;6.90;;;9.70;99.90;;;;;;5064282;28;20116;-57
2023/06/06 03:28:18;;;;;;;14.15;8.30;;;9.70;99.90;;;;;;5058965;28;20132;-57
2023/06/06 03:30:48;;;;;;;15.20;7.72;;;9.70;99.90;;;;;;5069955;28;20028;-57
2023/06/06 03:33:14;;;;;;;14.00;8.00;;;9.60;99.90;;;;;;5070244;28;20033;-57
2023/06/06 03:35:40;;;;;;;16.83;6.97;;;9.70;99.90;;;;;;5059346;28;20047;-57
2023/06/06 03:38:06;;;;;;;12.57;7.80;;;9.60;99.90;;;;;;5066702;28;20033;-57
2023/06/06 03:40:32;;;;;;;11.25;7.65;;;9.60;99.90;;;;;;5062255;28;20040;-57
2023/06/06 03:42:57;;;;;;;12.23;7.45;;;9.60;99.90;;;;;;5067349;28;20045;-57
2023/06/06 03:45:23;;;;;;;15.77;8.70;;;9.60;99.90;;;;;;5064188;28;20048;-57
2023/06/06 03:47:49;;;;;;;12.00;6.68;;;9.60;99.90;;;;;;5062389;28;20064;-57
2023/06/06 03:50:16;;;;;;;14.68;7.93;;;9.60;99.90;;;;;;5062333;28;20052;-57
2023/06/06 03:52:42;;;;;;;13.13;7.38;;;9.60;99.90;;;;;;5063362;28;20056;-57
2023/06/06 03:55:09;;;;;;;13.15;7.85;;;9.60;99.90;;;;;;5064068;28;20063;-57
2023/06/06 03:57:36;;;;;;;14.52;7.32;;;9.70;99.90;;;;;;5061657;28;20049;-57
2023/06/06 04:00:13;;;;;;;12.25;7.60;;;9.70;99.90;;;;;;5071984;28;20456;-56
2023/06/06 04:02:46;;;;;;;13.57;7.32;;;9.70;99.90;;;;;;5059723;28;20050;-58
2023/06/06 04:05:12;;;;;;;14.73;7.40;;;9.70;99.90;;;;;;5062248;28;20048;-56
2023/06/06 04:07:38;;;;;;;18.88;7.65;;;9.70;99.90;;;;;;5059536;28;20492;-56
2023/06/06 04:10:05;;;;;;;15.10;6.93;;;9.70;99.90;;;;;;5060055;28;20052;-58
2023/06/06 04:12:30;;;;;;;15.27;7.47;;;9.80;99.90;;;;;;5064999;28;20041;-57
2023/06/06 04:14:56;;;;;;;12.55;7.18;;;9.80;99.90;;;;;;5057576;28;20043;-57
2023/06/06 04:17:24;;;;;;;15.20;8.02;;;9.80;99.90;;;;;;5062079;28;20541;-57
2023/06/06 04:19:50;;;;;;;14.57;7.40;;;9.80;99.90;;;;;;5057441;28;20045;-56
2023/06/06 04:22:18;;;;;;;14.73;7.80;;;9.80;99.90;;;;;;5063982;28;20585;-57
2023/06/06 04:24:43;;;;;;;13.85;7.68;;;9.90;99.90;;;;;;5063030;28;20040;-57
2023/06/06 04:27:09;;;;;;;16.58;7.70;;;9.90;99.90;;;;;;5066573;28;20048;-57
2023/06/06 04:29:35;;;;;;;15.73;8.05;;;9.90;99.90;;;;;;5068421;28;20037;-57
2023/06/06 04:32:02;;;;;;;15.55;8.18;;;10.00;99.90;;;;;;5062319;28;20048;-57
2023/06/06 04:34:31;;;;;;;15.27;8.13;;;10.00;99.90;;;;;;5063971;28;20088;-57
2023/06/06 04:37:03;;;;;;;18.33;8.25;;;10.10;99.90;;;;;;5068241;28;20104;-56
2023/06/06 04:39:38;;;;;;;12.68;7.53;;;10.10;99.90;;;;;;5064687;28;20045;-57
2023/06/06 04:42:05;;;;;;;14.25;7.80;;;10.20;99.90;;;;;;5069412;28;20057;-56
2023/06/06 04:44:34;;;;;;;13.40;7.53;;;10.20;99.90;;;;;;5065339;28;20128;-56
2023/06/06 04:47:01;;;;;;;13.43;7.63;;;10.20;99.90;;;;;;5064790;28;20044;-56
2023/06/06 04:49:28;;;;;;;15.57;8.50;;;10.20;99.90;;;;;;5066123;28;20053;-58
2023/06/06 04:51:56;;;;;;;11.75;6.78;;;10.20;99.90;;;;;;5073092;28;20033;-57
2023/06/06 04:54:23;;;;;;;12.40;6.80;;;10.30;99.90;;;;;;5067057;28;20073;-55
2023/06/06 04:56:51;;;;;;;12.20;6.82;;;10.30;99.90;;;;;;5059598;28;20056;-56
2023/06/06 04:59:21;;;;;;;12.50;6.85;;;10.40;99.90;;;;;;5068447;28;20036;-57
2023/06/06 05:01:48;;;;;;;10.73;7.40;;;10.40;99.90;;;;;;5061707;28;20045;-57
2023/06/06 05:04:15;;;;;;;15.35;6.82;;;10.50;99.90;;;;;;5068380;28;20064;-57
2023/06/06 05:06:41;;;;;;;12.48;7.47;;;10.60;99.90;;;;;;5065048;28;20033;-57
2023/06/06 05:09:07;;;;;;;14.45;6.70;;;10.60;99.90;;;;;;5061589;28;20071;-57
2023/06/06 05:11:35;;;;;;;10.48;6.07;;;11.00;99.90;;;;;;5066565;28;20036;-57
2023/06/06 05:14:01;;;;;;;11.20;6.25;;;10.70;99.90;;;;;;5060920;28;20037;-57
2023/06/06 05:16:27;;;;;;;13.73;6.30;;;10.80;99.90;;;;;;5069160;28;20504;-57
2023/06/06 05:18:53;;;;;;;12.23;6.20;;;10.90;99.90;;;;;;5058547;28;20037;-57
2023/06/06 05:21:19;;;;;;;10.55;5.68;;;11.00;99.90;;;;;;5064629;28;20076;-57
2023/06/06 05:23:45;;;;;;;11.98;6.13;;;11.20;99.90;;;;;;5067780;28;20035;-57
2023/06/06 05:26:11;;;;;;;10.02;5.93;;;11.10;99.90;;;;;;5067386;28;20093;-56
2023/06/06 05:28:38;;;;;;;12.25;6.82;;;11.40;99.90;;;;;;5070300;28;20111;-57
2023/06/06 05:31:07;;;;;;;15.07;6.82;;;11.20;99.90;;;;;;5055908;28;20037;-57
2023/06/06 05:33:33;;;;;;;13.40;7.13;;;11.30;99.90;;;;;;5058136;28;20040;-57
2023/06/06 05:36:00;;;;;;;13.68;6.25;;;11.50;99.90;;;;;;5063729;28;20087;-58
2023/06/06 05:38:26;;;;;;;9.93;6.00;;;11.40;99.90;;;;;;5067595;28;20831;-57
2023/06/06 05:40:52;;;;;;;11.23;6.80;;;11.50;99.90;;;;;;5068357;28;20068;-57
2023/06/06 05:43:17;;;;;;;12.77;6.95;;;11.50;99.90;;;;;;5067015;28;20064;-57
2023/06/06 05:45:43;;;;;;;11.57;6.18;;;11.60;99.90;;;;;;5071098;28;20036;-57
2023/06/06 05:48:09;;;;;;;11.45;6.10;;;11.60;99.90;;;;;;5062082;28;20045;-57
2023/06/06 05:50:34;;;;;;;10.93;5.85;;;11.70;99.90;;;;;;5061808;28;20096;-57
2023/06/06 05:53:02;;;;;;;10.68;5.82;;;11.80;99.90;;;;;;5058308;28;20040;-59
2023/06/06 05:55:35;;;;;;;10.88;5.97;;;11.80;99.90;;;;;;5072728;28;20045;-57
2023/06/06 05:58:03;;;;;;;12.10;6.13;;;11.40;99.90;;;;;;5068597;28;20040;-57
2023/06/06 06:00:30;;;;;;;17.55;6.82;;;12.00;99.90;;;;;;5072642;28;20044;-58
2023/06/06 06:02:57;;;;;;;13.93;6.75;;;12.20;99.90;;;;;;5067731;28;20052;-57
2023/06/06 06:05:28;;;;;;;8.88;5.60;;;12.20;99.90;;;;;;5060225;28;20053;-58
2023/06/06 06:07:59;;;;;;;12.23;6.20;;;12.30;99.90;;;;;;5057700;28;20044;-58
2023/06/06 06:10:26;;;;;;;12.35;6.22;;;12.30;99.90;;;;;;5064838;28;20528;-58
2023/06/06 06:12:51;;;;;;;8.77;5.60;;;12.40;99.90;;;;;;5060658;28;20048;-59
2023/06/06 06:15:17;;;;;;;13.10;5.97;;;12.40;99.90;;;;;;5058477;28;20037;-58
2023/06/06 06:17:43;;;;;;;10.15;5.80;;;12.30;99.90;;;;;;5059948;28;20071;-58
2023/06/06 06:20:10;;;;;;;11.43;5.13;;;12.50;99.90;;;;;;5059736;28;20517;-58
2023/06/06 06:22:36;;;;;;;11.07;5.47;;;12.70;99.90;;;;;;5059110;28;20071;-59
2023/06/06 06:25:08;;;;;;;9.70;5.15;;;12.80;99.90;;;;;;5068165;28;20083;-58
2023/06/06 06:27:37;;;;;;;11.57;5.78;;;12.80;99.90;;;;;;5060595;28;20025;-59
2023/06/06 06:30:04;;;;;;;12.27;5.97;;;13.20;99.90;;;;;;5061491;28;20037;-58
2023/06/06 06:32:31;;;;;;;13.35;6.07;;;13.30;99.90;;;;;;5067985;28;20052;-58
2023/06/06 06:34:57;;;;;;;10.90;5.72;;;13.50;99.90;;;;;;5058390;28;20037;-60
2023/06/06 06:37:23;;;;;;;9.63;5.43;;;13.60;99.90;;;;;;5061929;28;20032;-59
2023/06/06 06:39:49;;;;;;;13.80;5.85;;;13.70;99.90;;;;;;5059691;28;20041;-58
2023/06/06 06:42:15;;;;;;;14.43;5.75;;;13.90;99.90;;;;;;5057075;28;20091;-59
2023/06/06 06:44:41;;;;;;;17.73;5.90;;;14.30;99.90;;;;;;5061718;28;20097;-58
2023/06/06 06:47:06;;;;;;;12.93;5.22;;;14.30;99.90;;;;;;5059427;28;20040;-59
2023/06/06 06:49:32;;;;;;;11.88;5.45;;;14.40;99.90;;;;;;5064297;28;20083;-59
2023/06/06 06:51:58;;;;;;;11.00;5.30;;;14.60;99.90;;;;;;5057812;28;20037;-59
2023/06/06 06:54:24;;;;;;;7.30;5.13;;;14.80;99.90;;;;;;5059615;28;20033;-58
2023/06/06 06:56:53;;;;;;;11.50;5.15;;;15.10;99.90;;;;;;5061699;28;20063;-58
2023/06/06 06:59:22;;;;;;;13.57;5.40;;;15.10;99.90;;;;;;5065953;28;20105;-58
2023/06/06 07:01:49;;;;;;;10.00;5.43;;;15.30;99.90;;;;;;5058678;28;20239;-57
2023/06/06 07:04:17;;;;;;;14.18;5.70;;;15.30;99.90;;;;;;5062584;28;20053;-58
2023/06/06 07:06:44;;;;;;;12.30;5.60;;;15.50;99.90;;;;;;5062096;28;20045;-59
2023/06/06 07:09:11;;;;;;;15.13;6.32;;;16.00;99.90;;;;;;5064529;28;20074;-58
2023/06/06 07:11:37;;;;;;;9.55;5.47;;;15.60;99.90;;;;;;5060274;28;20047;-56
2023/06/06 07:14:03;;;;;;;11.90;6.32;;;15.80;99.90;;;;;;5061326;28;20037;-59
2023/06/06 07:16:31;;;;;;;14.50;5.82;;;15.70;99.90;;;;;;5060001;28;20266;-59
2023/06/06 07:18:56;;;;;;;9.27;5.25;;;15.70;99.90;;;;;;5056729;28;20048;-59
2023/06/06 07:21:25;;;;;;;10.80;5.65;;;15.80;99.90;;;;;;5060531;28;20041;-59
2023/06/06 07:23:51;;;;;;;12.18;5.00;;;16.00;99.90;;;;;;5060269;28;20041;-59
2023/06/06 07:26:19;;;;;;;12.90;5.45;;;16.20;99.90;;;;;;5069753;28;20053;-58
2023/06/06 07:28:46;;;;;;;12.10;5.30;;;16.30;99.90;;;;;;5055821;28;20045;-59
2023/06/06 07:31:16;;;;;;;15.15;5.65;;;16.50;99.90;;;;;;5061622;28;20045;-58
2023/06/06 07:33:42;;;;;;;9.60;5.80;;;16.80;99.90;;;;;;5056603;28;20130;-59
2023/06/06 07:36:08;;;;;;;14.68;5.60;;;17.10;99.90;;;;;;5062836;28;20092;-59
2023/06/06 07:38:34;;;;;;;12.80;5.63;;;17.20;99.90;;;;;;5060237;28;20029;-59
2023/06/06 07:41:00;;;;;;;8.55;5.35;;;17.30;99.90;;;;;;5064669;28;20173;-59
2023/06/06 07:43:26;;;;;;;12.02;5.00;;;17.40;99.90;;;;;;5065979;28;20052;-58
2023/06/06 07:45:52;;;;;;;11.90;5.47;;;17.70;99.90;;;;;;5055291;28;20075;-58
2023/06/06 07:48:18;;;;;;;12.07;5.10;;;17.90;99.90;;;;;;5064919;28;20033;-56
2023/06/06 07:50:44;;;;;;;10.63;5.30;;;18.10;99.90;;;;;;5059960;28;20040;-56
2023/06/06 07:53:10;;;;;;;11.00;4.97;;;18.10;99.90;;;;;;5058626;28;20036;-58
2023/06/06 07:55:37;;;;;;;13.65;5.30;;;18.20;99.90;;;;;;5064220;28;20059;-58
2023/06/06 07:58:13;;;;;;;15.15;5.55;;;18.30;99.90;;;;;;5068190;28;20045;-58
2023/06/06 08:00:44;;;;;;;10.32;4.60;;;18.40;99.90;;;;;;5066950;28;20078;-54
2023/06/06 08:03:11;;;;;;;10.13;4.72;;;18.80;99.90;;;;;;5061937;28;20041;-57
2023/06/06 08:05:38;;;;;;;11.32;5.05;;;18.80;99.90;;;;;;5071293;28;20040;-55
2023/06/06 08:08:06;;;;;;;10.70;5.05;;;18.90;99.90;;;;;;5066713;28;20127;-56
2023/06/06 08:10:32;;;;;;;11.27;4.78;;;18.90;99.90;;;;;;5060560;28;20493;-57
2023/06/06 08:12:59;;;;;;;10.82;4.57;;;18.90;99.90;;;;;;5060624;28;20044;-57
2023/06/06 08:15:25;;;;;;;8.02;4.25;;;19.10;99.90;;;;;;5063787;28;20053;-56
2023/06/06 08:17:50;;;;;;;12.23;4.95;;;19.30;99.90;;;;;;5066019;28;20131;-56
2023/06/06 08:20:17;;;;;;;8.27;4.45;;;19.40;99.90;;;;;;5066655;28;20525;-58
2023/06/06 08:22:50;;;;;;;9.93;4.25;;;19.50;99.90;;;;;;5066121;28;20095;-57
2023/06/06 08:25:16;;;;;;;12.00;4.53;;;19.40;99.90;;;;;;5062423;28;20045;-57
2023/06/06 08:27:42;;;;;;;8.15;4.55;;;19.50;99.90;;;;;;5063911;28;20043;-58
2023/06/06 08:30:09;;;;;;;9.45;5.00;;;19.60;99.90;;;;;;5065157;28;20464;-57
2023/06/06 08:32:35;;;;;;;7.43;4.65;;;19.70;99.90;;;;;;5065941;28;20037;-57
2023/06/06 08:35:05;;;;;;;8.27;4.45;;;19.70;99.90;;;;;;5065864;28;20069;-57
2023/06/06 08:37:31;;;;;;;8.32;4.63;;;19.90;99.90;;;;;;5070476;28;20492;-57
2023/06/06 08:39:57;;;;;;;6.80;4.55;;;20.10;99.90;;;;;;5063397;28;20059;-56
2023/06/06 08:42:26;;;;;;;13.55;4.45;;;20.30;99.90;;;;;;5064382;28;20475;-57
2023/06/06 08:44:52;;;;;;;8.52;4.57;;;20.30;99.90;;;;;;5058749;28;20543;-57
2023/06/06 08:47:23;;;;;;;13.75;4.97;;;20.40;99.90;;;;;;5066809;28;20053;-57
2023/06/06 08:49:50;;;;;;;10.88;5.65;;;20.30;99.90;;;;;;5058281;28;20036;-56
2023/06/06 08:52:16;;;;;;;7.68;4.60;;;20.30;99.90;;;;;;5066990;28;20150;-57
2023/06/06 08:54:43;;;;;;;11.38;5.28;;;20.40;99.90;;;;;;5064710;28;20477;-57
2023/06/06 08:57:09;;;;;;;9.88;5.38;;;20.50;99.90;;;;;;5061695;28;20036;-57
2023/06/06 08:59:37;;;;;;;14.95;5.40;;;20.60;99.90;;;;;;5057986;28;20063;-59
2023/06/06 09:02:06;;;;;;;11.73;5.30;;;20.90;99.90;;;;;;5065551;28;20480;-56
2023/06/06 09:04:36;;;;;;;12.93;5.43;;;21.00;99.90;;;;;;5072173;28;20052;-58
2023/06/06 09:07:11;;;;;;;11.55;5.25;;;21.00;99.90;;;;;;5058867;28;20048;-57
2023/06/06 09:09:38;;;;;;;9.73;5.10;;;20.80;99.90;;;;;;5063417;28;20033;-57
2023/06/06 09:12:09;;;;;;;10.10;5.20;;;20.90;99.90;;;;;;5063433;28;20041;-57
2023/06/06 09:14:35;;;;;;;10.85;5.10;;;21.00;99.90;;;;;;5062118;28;20583;-57
2023/06/06 09:17:02;;;;;;;10.57;5.63;;;21.00;99.90;;;;;;5058462;28;20045;-57
2023/06/06 09:19:29;;;;;;;11.63;5.35;;;21.10;99.90;;;;;;5067218;28;20041;-57
2023/06/06 09:21:58;;;;;;;11.65;5.47;;;21.10;99.90;;;;;;5062827;28;20041;-56
2023/06/06 09:24:24;;;;;;;10.73;4.97;;;21.10;99.90;;;;;;5062481;28;20056;-57
2023/06/06 09:26:50;;;;;;;9.05;5.13;;;21.20;99.90;;;;;;5065079;28;20056;-58
2023/06/06 09:29:16;;;;;;;10.82;5.55;;;21.20;99.90;;;;;;5066007;28;20032;-57
2023/06/06 09:31:42;;;;;;;10.18;5.22;;;21.10;99.90;;;;;;5064280;28;20644;-58
2023/06/06 09:34:10;;;;;;;9.27;5.15;;;21.20;99.90;;;;;;5060823;28;20079;-58
2023/06/06 09:36:41;;;;;;;12.50;5.28;;;21.30;99.90;;;;;;5064281;28;20442;-56
2023/06/06 09:39:11;;;;;;;11.80;5.18;;;21.30;99.90;;;;;;5074340;28;20059;-57
2023/06/06 09:41:43;;;;;;;9.30;5.43;;;21.30;99.90;;;;;;5061416;28;20631;-57
2023/06/06 09:44:22;;;;;;;10.48;5.22;;;21.40;99.90;;;;;;5066387;28;20532;-57
2023/06/06 09:46:50;;;;;;;8.27;4.93;;;21.50;99.10;;;;;;5061766;28;20037;-58
2023/06/06 09:49:15;;;;;;;9.18;4.40;;;21.40;99.90;;;;;;5070558;28;20114;-58
2023/06/06 09:51:42;;;;;;;9.02;4.63;;;21.40;99.90;;;;;;5060180;28;20057;-57
2023/06/06 09:54:10;;;;;;;6.82;4.38;;;21.50;99.90;;;;;;5063242;28;20033;-58
2023/06/06 09:56:39;;;;;;;7.88;4.00;;;21.50;99.90;;;;;;5068932;28;20048;-58
2023/06/06 09:59:07;;;;;;;7.60;3.85;;;21.60;99.90;;;;;;5060470;28;20044;-59
2023/06/06 10:01:35;;;;;;;9.35;4.15;;;21.70;99.90;;;;;;5060011;28;20485;-59
2023/06/06 10:04:03;;;;;;;8.70;4.10;;;21.80;99.90;;;;;;5065276;28;20104;-58
2023/06/06 10:06:37;;;;;;;8.38;3.97;;;21.90;99.90;;;;;;5062983;28;20033;-59
2023/06/06 10:09:06;;;;;;;9.50;4.07;;;21.90;99.90;;;;;;5069603;28;20043;-57
2023/06/06 10:11:33;;;;;;;10.38;4.15;;;22.00;99.10;;;;;;5066434;28;20064;-59
2023/06/06 10:14:01;;;;;;;10.88;4.57;;;21.80;99.70;;;;;;5066643;28;20045;-58
2023/06/06 10:16:29;;;;;;;8.00;4.05;;;21.70;99.60;;;;;;5060269;28;20029;-58
2023/06/06 10:18:56;;;;;;;9.95;4.50;;;21.60;99.50;;;;;;5060456;28;20267;-57
2023/06/06 10:21:23;;;;;;;8.10;4.28;;;21.60;99.40;;;;;;5062443;28;20481;-58
2023/06/06 10:23:48;;;;;;;8.45;4.63;;;21.50;99.40;;;;;;5060408;28;20071;-58
2023/06/06 10:26:23;;;;;;;9.27;4.47;;;21.40;99.30;;;;;;5063102;28;20044;-57
2023/06/06 10:29:12;;;;;;;8.03;4.30;;;21.40;99.30;;;;;;5062744;28;20056;-58
2023/06/06 10:31:53;;;;;;;7.80;4.43;;;21.30;99.40;;;;;;5066130;28;20106;-58
2023/06/06 10:34:24;;;;;;;10.05;4.82;;;21.10;99.60;;;;;;5065843;28;20120;-57
2023/06/06 10:36:51;;;;;;;10.15;4.22;;;21.00;99.20;;;;;;5066325;28;20036;-57
2023/06/06 10:39:21;;;;;;;8.40;4.75;;;20.90;99.40;;;;;;5069938;28;20067;-58
2023/06/06 10:42:07;;;;;;;7.57;4.03;;;20.90;99.50;;;;;;5058442;28;20405;-57
2023/06/06 10:44:52;;;;;;;10.65;4.85;;;21.00;98.80;;;;;;5062231;28;20033;-57
2023/06/06 10:47:21;;;;;;;6.40;3.83;;;21.00;98.90;;;;;;5067532;28;20048;-58
2023/06/06 10:50:11;;;;;;;12.77;4.63;;;20.90;99.10;;;;;;5062180;28;20045;-57
2023/06/06 10:52:57;;;;;;;9.35;5.03;;;21.00;99.10;;;;;;5060985;28;20091;-57
2023/06/06 10:55:23;;;;;;;10.00;4.97;;;21.00;99.10;;;;;;5060701;28;20049;-58
2023/06/06 10:57:52;;;;;;;7.10;4.55;;;21.00;99.00;;;;;;5065169;28;20476;-57
2023/06/06 11:00:22;;;;;;;11.50;4.50;;;20.90;99.00;;;;;;5063274;28;20041;-57
2023/06/06 11:02:48;;;;;;;9.30;4.15;;;21.00;99.30;;;;;;5048788;28;20032;-58
2023/06/06 11:05:14;;;;;;;8.60;3.92;;;21.10;99.30;;;;;;5064010;28;20060;-58
2023/06/06 11:07:40;;;;;;;8.48;3.85;;;21.30;99.80;;;;;;5067649;28;20066;-58
2023/06/06 11:10:06;;;;;;;10.52;4.60;;;21.50;99.70;;;;;;5057872;28;20052;-57
2023/06/06 11:12:32;;;;;;;6.88;4.20;;;21.60;99.60;;;;;;5067015;28;20037;-58
2023/06/06 11:15:07;;;;;;;13.48;4.53;;;21.70;99.90;;;;;;5060730;28;20032;-58
2023/06/06 11:17:48;;;;;;;7.43;4.22;;;21.70;99.10;;;;;;5065006;28;20071;-58
2023/06/06 11:20:27;;;;;;;10.85;3.80;;;21.90;99.80;;;;;;5060812;28;20040;-58
2023/06/06 11:23:03;;;;;;;8.98;4.28;;;22.10;99.50;;;;;;5062976;28;20261;-58
2023/06/06 11:25:37;;;;;;;8.93;3.88;;;22.10;99.70;;;;;;5061908;28;20216;-58
2023/06/06 11:28:03;;;;;;;12.13;4.72;;;22.20;98.40;;;;;;5068061;28;20045;-58
2023/06/06 11:30:36;;;;;;;10.65;4.53;;;22.20;98.50;;;;;;5063241;28;20103;-58
2023/06/06 11:33:09;;;;;;;10.48;4.00;;;22.10;97.70;;;;;;5062331;28;20044;-58
2023/06/06 11:35:38;;;;;;;9.35;4.28;;;22.10;97.90;;;;;;5061889;28;20041;-58
2023/06/06 11:38:05;;;;;;;8.63;4.13;;;22.10;97.70;;;;;;5066410;28;20392;-58
2023/06/06 11:40:30;;;;;;;6.82;3.75;;;22.10;97.70;;;;;;5067695;28;20049;-58
2023/06/06 11:42:58;;;;;;;9.90;4.15;;;22.20;97.70;;;;;;5064984;28;20052;-58
2023/06/06 11:45:24;;;;;;;10.13;3.90;;;22.20;97.80;;;;;;5066944;28;20054;-57
2023/06/06 11:47:51;;;;;;;10.65;3.90;;;22.30;97.70;;;;;;5073387;28;20092;-59
2023/06/06 11:50:27;;;;;;;9.00;4.38;;;22.40;98.20;;;;;;5067956;28;20036;-58
2023/06/06 11:52:53;;;;;;;7.53;3.80;;;22.60;98.00;;;;;;5061973;28;20044;-58
2023/06/06 11:55:19;;;;;;;8.45;4.35;;;22.70;97.90;;;;;;5061642;28;20138;-58
2023/06/06 11:57:45;;;;;;;8.63;4.25;;;22.80;97.00;;;;;;5060587;28;20757;-58
2023/06/06 12:00:17;;;;;;;7.15;3.90;;;22.70;97.00;;;;;;5065322;28;20100;-58
2023/06/06 12:02:48;;;;;;;7.95;4.38;;;22.70;96.70;;;;;;5063632;28;20047;-57
2023/06/06 12:05:18;;;;;;;7.93;3.97;;;22.60;96.20;;;;;;5061660;28;20056;-58
2023/06/06 12:07:44;;;;;;;8.95;4.07;;;22.60;96.50;;;;;;5064435;28;20106;-58
2023/06/06 12:10:10;;;;;;;5.30;3.70;;;22.70;96.30;;;;;;5064444;28;20501;-59
2023/06/06 12:12:45;;;;;;;8.40;3.92;;;22.80;96.30;;;;;;5068796;28;20040;-59
2023/06/06 12:15:10;;;;;;;6.85;4.00;;;22.80;96.30;;;;;;5069069;28;20088;-59
2023/06/06 12:17:36;;;;;;;8.55;4.22;;;22.90;95.90;;;;;;5069099;28;20048;-57
2023/06/06 12:20:05;;;;;;;9.30;4.30;;;22.90;95.40;;;;;;5067514;28;20107;-61
2023/06/06 12:22:33;;;;;;;11.48;4.28;;;23.00;95.20;;;;;;5069137;28;20118;-57
2023/06/06 12:24:59;;;;;;;9.23;4.22;;;23.00;95.30;;;;;;5068767;28;20051;-57
2023/06/06 12:27:26;;;;;;;6.05;3.80;;;23.30;95.40;;;;;;5068569;28;20045;-58
2023/06/06 12:29:54;;;;;;;8.60;4.30;;;23.60;95.70;;;;;;5059165;28;20025;-57
2023/06/06 12:32:29;;;;;;;11.38;4.45;;;23.80;95.70;;;;;;5060884;28;20041;-57
2023/06/06 12:35:02;;;;;;;9.23;4.32;;;24.00;95.30;;;;;;5072012;28;20052;-57
2023/06/06 12:37:41;;;;;;;7.57;4.28;;;24.20;95.40;;;;;;5060340;28;20040;-57
2023/06/06 12:40:23;;;;;;;8.30;4.25;;;24.40;95.40;;;;;;5060491;28;20513;-57
2023/06/06 12:42:55;;;;;;;7.57;4.80;;;24.50;94.20;;;;;;5060230;28;20051;-56
2023/06/06 12:45:24;;;;;;;8.27;4.57;;;24.50;94.40;;;;;;5060385;28;20053;-57
2023/06/06 12:47:51;;;;;;;10.32;5.07;;;24.70;94.30;;;;;;5068029;28;20060;-58